sensor_id;sensor_type;location;lat;lon;timestamp;temperature;humidity
23691;DHT22;43867;50.836;4.364;2022-09-20T00:01:58;12.30;99.90
23691;DHT22;43867;50.836;4.364;2022-09-20T00:04:24;12.30;99.90
23691;DHT22;43867;50.836;4.364;2022-09-20T00:06:49;12.00;99.90
23691;DHT22;43867;50.836;4.364;2022-09-20T00:09:15;12.10;99.90
23691;DHT22;43867;50.836;4.364;2022-09-20T00:11:40;12.00;99.90
23691;DHT22;43867;50.836;4.364;2022-09-20T00:14:06;12.10;99.90
23691;DHT22;43867;50.836;4.364;2022-09-20T00:16:38;12.10;99.90
23691;DHT22;43867;50.836;4.364;2022-09-20T00:19:04;12.10;99.90
23691;DHT22;43867;50.836;4.364;2022-09-20T00:21:32;11.90;99.90
23691;DHT22;43867;50.836;4.364;2022-09-20T00:23:58;11.90;99.90
23691;DHT22;43867;50.836;4.364;2022-09-20T00:26:25;11.90;99.90
23691;DHT22;43867;50.836;4.364;2022-09-20T00:28:51;11.80;99.90
23691;DHT22;43867;50.836;4.364;2022-09-20T00:31:17;11.80;99.90
23691;DHT22;43867;50.836;4.364;2022-09-20T00:33:43;11.90;99.90
23691;DHT22;43867;50.836;4.364;2022-09-20T00:36:27;11.90;99.90
23691;DHT22;43867;50.836;4.364;2022-09-20T00:38:57;11.80;99.90
23691;DHT22;43867;50.836;4.364;2022-09-20T00:41:23;11.80;99.90
23691;DHT22;43867;50.836;4.364;2022-09-20T00:43:49;11.80;99.90
23691;DHT22;43867;50.836;4.364;2022-09-20T00:47:00;11.80;99.90
23691;DHT22;43867;50.836;4.364;2022-09-20T00:49:26;11.90;99.90
23691;DHT22;43867;50.836;4.364;2022-09-20T00:51:58;11.80;99.90
23691;DHT22;43867;50.836;4.364;2022-09-20T00:54:27;11.80;99.90
23691;DHT22;43867;50.836;4.364;2022-09-20T00:56:55;11.70;99.90
23691;DHT22;43867;50.836;4.364;2022-09-20T00:59:26;11.70;99.90
23691;DHT22;43867;50.836;4.364;2022-09-20T01:02:00;11.90;99.90
23691;DHT22;43867;50.836;4.364;2022-09-20T01:04:28;11.90;99.90
23691;DHT22;43867;50.836;4.364;2022-09-20T01:06:58;11.80;99.90
23691;DHT22;43867;50.836;4.364;2022-09-20T01:09:25;11.80;99.90
23691;DHT22;43867;50.836;4.364;2022-09-20T01:11:53;11.80;99.90
23691;DHT22;43867;50.836;4.364;2022-09-20T01:14:20;11.80;99.90
23691;DHT22;43867;50.836;4.364;2022-09-20T01:16:48;11.80;99.90
23691;DHT22;43867;50.836;4.364;2022-09-20T01:19:20;11.60;99.90
23691;DHT22;43867;50.836;4.364;2022-09-20T01:21:48;11.70;99.90
23691;DHT22;43867;50.836;4.364;2022-09-20T01:24:28;11.80;99.90
23691;DHT22;43867;50.836;4.364;2022-09-20T01:27:10;11.60;99.90
23691;DHT22;43867;50.836;4.364;2022-09-20T01:29:58;11.50;99.90
23691;DHT22;43867;50.836;4.364;2022-09-20T01:32:39;11.40;99.90
23691;DHT22;43867;50.836;4.364;2022-09-20T01:35:08;11.40;99.90
23691;DHT22;43867;50.836;4.364;2022-09-20T01:41:11;11.30;99.90
23691;DHT22;43867;50.836;4.364;2022-09-20T01:43:52;11.50;99.90
23691;DHT22;43867;50.836;4.364;2022-09-20T01:46:28;11.50;99.90
23691;DHT22;43867;50.836;4.364;2022-09-20T02:00:20;11.40;99.90
23691;DHT22;43867;50.836;4.364;2022-09-20T02:11:12;11.50;99.90
23691;DHT22;43867;50.836;4.364;2022-09-20T02:16:43;11.50;99.90
23691;DHT22;43867;50.836;4.364;2022-09-20T02:22:18;11.30;99.90
23691;DHT22;43867;50.836;4.364;2022-09-20T02:30:40;11.40;99.90
23691;DHT22;43867;50.836;4.364;2022-09-20T02:38:50;11.40;99.90
23691;DHT22;43867;50.836;4.364;2022-09-20T02:55:09;11.40;99.90
23691;DHT22;43867;50.836;4.364;2022-09-20T03:00:25;11.50;99.90
23691;DHT22;43867;50.836;4.364;2022-09-20T03:03:18;11.40;99.90
23691;DHT22;43867;50.836;4.364;2022-09-20T03:06:01;11.30;99.90
23691;DHT22;43867;50.836;4.364;2022-09-20T03:11:28;11.50;99.90
23691;DHT22;43867;50.836;4.364;2022-09-20T03:17:02;11.30;99.90
23691;DHT22;43867;50.836;4.364;2022-09-20T03:19:45;11.30;99.90
23691;DHT22;43867;50.836;4.364;2022-09-20T03:42:18;11.20;99.90
23691;DHT22;43867;50.836;4.364;2022-09-20T04:07:47;11.30;99.90
23691;DHT22;43867;50.836;4.364;2022-09-20T04:21:09;11.70;99.90
23691;DHT22;43867;50.836;4.364;2022-09-20T04:23:49;11.70;99.90
23691;DHT22;43867;50.836;4.364;2022-09-20T04:26:27;11.50;99.90
23691;DHT22;43867;50.836;4.364;2022-09-20T04:32:47;11.40;99.90
23691;DHT22;43867;50.836;4.364;2022-09-20T04:34:54;11.30;99.90
23691;DHT22;43867;50.836;4.364;2022-09-20T04:37:42;11.20;99.90
23691;DHT22;43867;50.836;4.364;2022-09-20T04:46:34;10.80;99.90
23691;DHT22;43867;50.836;4.364;2022-09-20T05:00:23;10.80;99.90
23691;DHT22;43867;50.836;4.364;2022-09-20T05:09:19;10.80;99.90
23691;DHT22;43867;50.836;4.364;2022-09-20T05:18:01;10.70;99.90
23691;DHT22;43867;50.836;4.364;2022-09-20T05:23:27;10.80;99.90
23691;DHT22;43867;50.836;4.364;2022-09-20T05:47:55;10.90;99.90
23691;DHT22;43867;50.836;4.364;2022-09-20T05:50:56;10.90;99.90
23691;DHT22;43867;50.836;4.364;2022-09-20T05:56:33;10.90;99.90
23691;DHT22;43867;50.836;4.364;2022-09-20T06:13:39;10.90;99.90
23691;DHT22;43867;50.836;4.364;2022-09-20T06:16:08;10.90;99.90
23691;DHT22;43867;50.836;4.364;2022-09-20T06:21:52;10.90;99.90
23691;DHT22;43867;50.836;4.364;2022-09-20T06:26:55;11.10;99.90
23691;DHT22;43867;50.836;4.364;2022-09-20T06:29:29;11.00;99.90
23691;DHT22;43867;50.836;4.364;2022-09-20T06:31:55;11.10;99.90
23691;DHT22;43867;50.836;4.364;2022-09-20T06:34:21;11.00;99.90
23691;DHT22;43867;50.836;4.364;2022-09-20T06:36:53;11.10;99.90
23691;DHT22;43867;50.836;4.364;2022-09-20T06:39:56;11.30;99.90
23691;DHT22;43867;50.836;4.364;2022-09-20T06:42:42;11.40;99.90
23691;DHT22;43867;50.836;4.364;2022-09-20T06:45:09;11.40;99.90
23691;DHT22;43867;50.836;4.364;2022-09-20T06:47:35;11.40;99.90
23691;DHT22;43867;50.836;4.364;2022-09-20T06:50:01;11.40;99.90
23691;DHT22;43867;50.836;4.364;2022-09-20T06:52:27;11.60;99.90
23691;DHT22;43867;50.836;4.364;2022-09-20T06:54:54;11.60;99.90
23691;DHT22;43867;50.836;4.364;2022-09-20T06:57:25;11.80;99.90
23691;DHT22;43867;50.836;4.364;2022-09-20T06:59:54;11.90;99.90
23691;DHT22;43867;50.836;4.364;2022-09-20T07:02:20;12.10;99.90
23691;DHT22;43867;50.836;4.364;2022-09-20T07:04:46;12.00;99.90
23691;DHT22;43867;50.836;4.364;2022-09-20T07:07:15;12.00;99.90
23691;DHT22;43867;50.836;4.364;2022-09-20T07:09:41;11.90;99.90
23691;DHT22;43867;50.836;4.364;2022-09-20T07:12:06;12.20;99.90
23691;DHT22;43867;50.836;4.364;2022-09-20T07:14:35;12.20;99.90
23691;DHT22;43867;50.836;4.364;2022-09-20T07:17:03;12.20;99.90
23691;DHT22;43867;50.836;4.364;2022-09-20T07:19:32;12.40;99.90
23691;DHT22;43867;50.836;4.364;2022-09-20T07:21:58;12.60;99.90
23691;DHT22;43867;50.836;4.364;2022-09-20T07:24:24;12.80;99.90
23691;DHT22;43867;50.836;4.364;2022-09-20T07:26:58;12.90;99.90
23691;DHT22;43867;50.836;4.364;2022-09-20T07:29:24;13.00;99.90
23691;DHT22;43867;50.836;4.364;2022-09-20T07:31:51;13.10;99.90
23691;DHT22;43867;50.836;4.364;2022-09-20T07:34:17;13.20;99.90
23691;DHT22;43867;50.836;4.364;2022-09-20T07:36:45;13.40;99.90
23691;DHT22;43867;50.836;4.364;2022-09-20T07:39:11;13.40;99.90
23691;DHT22;43867;50.836;4.364;2022-09-20T07:41:37;13.60;99.90
23691;DHT22;43867;50.836;4.364;2022-09-20T07:44:03;13.80;99.90
23691;DHT22;43867;50.836;4.364;2022-09-20T07:46:54;13.80;99.90
23691;DHT22;43867;50.836;4.364;2022-09-20T07:49:21;14.00;99.90
23691;DHT22;43867;50.836;4.364;2022-09-20T07:51:47;14.00;99.90
23691;DHT22;43867;50.836;4.364;2022-09-20T07:54:14;14.30;99.90
23691;DHT22;43867;50.836;4.364;2022-09-20T07:56:40;14.40;99.90
23691;DHT22;43867;50.836;4.364;2022-09-20T07:59:06;14.80;99.90
23691;DHT22;43867;50.836;4.364;2022-09-20T08:01:32;15.00;99.90
23691;DHT22;43867;50.836;4.364;2022-09-20T08:03:58;15.00;99.90
23691;DHT22;43867;50.836;4.364;2022-09-20T08:06:36;14.90;99.90
23691;DHT22;43867;50.836;4.364;2022-09-20T08:09:13;15.30;99.90
23691;DHT22;43867;50.836;4.364;2022-09-20T08:11:40;15.50;99.90
23691;DHT22;43867;50.836;4.364;2022-09-20T08:14:06;15.60;99.90
23691;DHT22;43867;50.836;4.364;2022-09-20T08:16:40;15.80;99.90
23691;DHT22;43867;50.836;4.364;2022-09-20T08:19:08;16.00;99.90
23691;DHT22;43867;50.836;4.364;2022-09-20T08:21:34;16.00;99.90
23691;DHT22;43867;50.836;4.364;2022-09-20T08:24:01;16.10;99.90
23691;DHT22;43867;50.836;4.364;2022-09-20T08:26:29;16.00;99.90
23691;DHT22;43867;50.836;4.364;2022-09-20T08:29:00;16.00;99.90
23691;DHT22;43867;50.836;4.364;2022-09-20T08:31:30;15.90;99.90
23691;DHT22;43867;50.836;4.364;2022-09-20T08:33:58;16.40;99.90
23691;DHT22;43867;50.836;4.364;2022-09-20T08:36:29;16.50;99.90
23691;DHT22;43867;50.836;4.364;2022-09-20T08:38:55;16.40;99.90
23691;DHT22;43867;50.836;4.364;2022-09-20T08:41:26;16.30;99.90
23691;DHT22;43867;50.836;4.364;2022-09-20T08:43:59;16.40;99.90
23691;DHT22;43867;50.836;4.364;2022-09-20T08:46:31;16.20;99.90
23691;DHT22;43867;50.836;4.364;2022-09-20T08:49:03;15.90;99.90
23691;DHT22;43867;50.836;4.364;2022-09-20T08:51:34;15.70;99.90
23691;DHT22;43867;50.836;4.364;2022-09-20T08:54:01;15.70;99.90
23691;DHT22;43867;50.836;4.364;2022-09-20T08:56:34;16.10;99.90
23691;DHT22;43867;50.836;4.364;2022-09-20T08:59:13;16.20;99.90
23691;DHT22;43867;50.836;4.364;2022-09-20T09:01:40;16.20;99.90
23691;DHT22;43867;50.836;4.364;2022-09-20T09:04:34;16.20;99.90
23691;DHT22;43867;50.836;4.364;2022-09-20T09:07:01;16.00;99.90
23691;DHT22;43867;50.836;4.364;2022-09-20T09:09:28;16.00;99.90
23691;DHT22;43867;50.836;4.364;2022-09-20T09:11:55;16.10;99.90
23691;DHT22;43867;50.836;4.364;2022-09-20T09:14:33;16.10;99.90
23691;DHT22;43867;50.836;4.364;2022-09-20T09:17:25;16.00;99.90
23691;DHT22;43867;50.836;4.364;2022-09-20T09:22:44;16.00;99.90
23691;DHT22;43867;50.836;4.364;2022-09-20T09:30:41;16.90;99.90
23691;DHT22;43867;50.836;4.364;2022-09-20T09:33:25;17.40;99.90
23691;DHT22;43867;50.836;4.364;2022-09-20T09:36:06;17.80;99.90
23691;DHT22;43867;50.836;4.364;2022-09-20T09:38:36;18.10;99.90
23691;DHT22;43867;50.836;4.364;2022-09-20T09:41:20;18.50;99.90
23691;DHT22;43867;50.836;4.364;2022-09-20T09:44:00;18.60;99.90
23691;DHT22;43867;50.836;4.364;2022-09-20T09:46:31;18.50;99.90
23691;DHT22;43867;50.836;4.364;2022-09-20T09:49:13;18.00;99.90
23691;DHT22;43867;50.836;4.364;2022-09-20T09:51:40;18.00;99.90
23691;DHT22;43867;50.836;4.364;2022-09-20T09:54:16;17.90;99.90
23691;DHT22;43867;50.836;4.364;2022-09-20T09:57:01;17.40;99.90
23691;DHT22;43867;50.836;4.364;2022-09-20T10:00:04;17.40;99.90
23691;DHT22;43867;50.836;4.364;2022-09-20T10:19:14;17.00;99.90
23691;DHT22;43867;50.836;4.364;2022-09-20T10:30:03;17.30;99.90
23691;DHT22;43867;50.836;4.364;2022-09-20T10:38:33;17.40;99.90
23691;DHT22;43867;50.836;4.364;2022-09-20T10:41:23;17.60;99.90
23691;DHT22;43867;50.836;4.364;2022-09-20T10:44:23;18.00;99.90
23691;DHT22;43867;50.836;4.364;2022-09-20T10:47:17;18.00;99.90
23691;DHT22;43867;50.836;4.364;2022-09-20T11:05:48;17.60;99.90
23691;DHT22;43867;50.836;4.364;2022-09-20T11:08:22;17.40;99.90
23691;DHT22;43867;50.836;4.364;2022-09-20T11:11:10;17.20;99.90
23691;DHT22;43867;50.836;4.364;2022-09-20T11:13:39;17.30;99.90
23691;DHT22;43867;50.836;4.364;2022-09-20T11:16:18;17.30;99.90
23691;DHT22;43867;50.836;4.364;2022-09-20T11:19:03;17.30;99.90
23691;DHT22;43867;50.836;4.364;2022-09-20T11:26:52;16.90;99.90
23691;DHT22;43867;50.836;4.364;2022-09-20T11:29:48;16.90;99.90
23691;DHT22;43867;50.836;4.364;2022-09-20T11:32:27;17.10;99.90
23691;DHT22;43867;50.836;4.364;2022-09-20T11:38:12;17.40;99.90
23691;DHT22;43867;50.836;4.364;2022-09-20T11:41:01;17.70;99.90
23691;DHT22;43867;50.836;4.364;2022-09-20T11:43:39;17.90;99.90
23691;DHT22;43867;50.836;4.364;2022-09-20T11:46:24;18.20;99.90
23691;DHT22;43867;50.836;4.364;2022-09-20T11:49:22;18.00;99.90
23691;DHT22;43867;50.836;4.364;2022-09-20T11:57:04;18.30;99.90
23691;DHT22;43867;50.836;4.364;2022-09-20T11:59:34;18.80;99.90
23691;DHT22;43867;50.836;4.364;2022-09-20T12:02:06;18.40;99.90
23691;DHT22;43867;50.836;4.364;2022-09-20T12:04:43;18.40;99.90
23691;DHT22;43867;50.836;4.364;2022-09-20T12:07:22;18.20;99.90
23691;DHT22;43867;50.836;4.364;2022-09-20T12:10:00;18.40;99.90
23691;DHT22;43867;50.836;4.364;2022-09-20T12:12:47;18.00;99.90
23691;DHT22;43867;50.836;4.364;2022-09-20T12:15:29;17.80;99.90
23691;DHT22;43867;50.836;4.364;2022-09-20T12:28:58;17.10;99.90
23691;DHT22;43867;50.836;4.364;2022-09-20T12:33:58;16.90;99.90
23691;DHT22;43867;50.836;4.364;2022-09-20T12:36:32;17.10;99.90
23691;DHT22;43867;50.836;4.364;2022-09-20T12:44:41;17.00;99.90
23691;DHT22;43867;50.836;4.364;2022-09-20T13:03:44;18.40;98.80
23691;DHT22;43867;50.836;4.364;2022-09-20T13:09:01;18.80;97.50
23691;DHT22;43867;50.836;4.364;2022-09-20T13:11:42;18.40;97.00
23691;DHT22;43867;50.836;4.364;2022-09-20T13:14:10;18.10;96.30
23691;DHT22;43867;50.836;4.364;2022-09-20T13:19:49;17.40;98.70
23691;DHT22;43867;50.836;4.364;2022-09-20T13:22:24;17.80;98.40
23691;DHT22;43867;50.836;4.364;2022-09-20T13:24:59;18.00;99.10
23691;DHT22;43867;50.836;4.364;2022-09-20T13:30:18;17.50;98.40
23691;DHT22;43867;50.836;4.364;2022-09-20T13:32:45;17.70;98.70
23691;DHT22;43867;50.836;4.364;2022-09-20T13:37:55;18.20;97.10
23691;DHT22;43867;50.836;4.364;2022-09-20T13:40:32;18.20;95.70
23691;DHT22;43867;50.836;4.364;2022-09-20T13:43:05;18.00;96.10
23691;DHT22;43867;50.836;4.364;2022-09-20T13:45:31;18.20;96.80
23691;DHT22;43867;50.836;4.364;2022-09-20T13:47:59;18.00;97.00
23691;DHT22;43867;50.836;4.364;2022-09-20T13:57:56;18.10;98.00
23691;DHT22;43867;50.836;4.364;2022-09-20T14:00:24;18.30;97.30
23691;DHT22;43867;50.836;4.364;2022-09-20T14:02:52;18.10;97.90
23691;DHT22;43867;50.836;4.364;2022-09-20T14:05:22;18.00;98.80
23691;DHT22;43867;50.836;4.364;2022-09-20T14:07:48;18.20;99.60
23691;DHT22;43867;50.836;4.364;2022-09-20T14:10:33;18.30;99.10
23691;DHT22;43867;50.836;4.364;2022-09-20T14:13:04;18.50;98.80
23691;DHT22;43867;50.836;4.364;2022-09-20T14:15:35;18.80;97.80
23691;DHT22;43867;50.836;4.364;2022-09-20T14:18:02;18.70;98.10
23691;DHT22;43867;50.836;4.364;2022-09-20T14:20:36;18.20;98.30
23691;DHT22;43867;50.836;4.364;2022-09-20T14:23:02;18.40;98.10
23691;DHT22;43867;50.836;4.364;2022-09-20T14:25:28;18.50;97.90
23691;DHT22;43867;50.836;4.364;2022-09-20T14:28:17;18.30;98.00
23691;DHT22;43867;50.836;4.364;2022-09-20T14:30:45;18.20;99.10
23691;DHT22;43867;50.836;4.364;2022-09-20T14:33:16;18.50;97.50
23691;DHT22;43867;50.836;4.364;2022-09-20T14:35:48;18.30;97.00
23691;DHT22;43867;50.836;4.364;2022-09-20T14:38:16;18.20;96.40
23691;DHT22;43867;50.836;4.364;2022-09-20T14:40:47;18.20;96.30
23691;DHT22;43867;50.836;4.364;2022-09-20T14:43:27;18.40;96.30
23691;DHT22;43867;50.836;4.364;2022-09-20T14:45:57;18.40;95.30
23691;DHT22;43867;50.836;4.364;2022-09-20T14:57:01;18.80;98.80
23691;DHT22;43867;50.836;4.364;2022-09-20T14:59:35;18.50;99.60
23691;DHT22;43867;50.836;4.364;2022-09-20T15:04:35;18.10;99.70
23691;DHT22;43867;50.836;4.364;2022-09-20T15:07:08;18.20;99.40
23691;DHT22;43867;50.836;4.364;2022-09-20T15:09:37;18.20;99.90
23691;DHT22;43867;50.836;4.364;2022-09-20T15:12:12;18.20;99.90
23691;DHT22;43867;50.836;4.364;2022-09-20T15:14:38;18.10;99.90
23691;DHT22;43867;50.836;4.364;2022-09-20T15:17:14;18.10;99.90
23691;DHT22;43867;50.836;4.364;2022-09-20T15:19:41;17.90;99.90
23691;DHT22;43867;50.836;4.364;2022-09-20T15:22:10;17.90;99.90
23691;DHT22;43867;50.836;4.364;2022-09-20T15:24:37;17.70;99.90
23691;DHT22;43867;50.836;4.364;2022-09-20T15:27:03;17.80;99.90
23691;DHT22;43867;50.836;4.364;2022-09-20T15:29:29;17.90;99.40
23691;DHT22;43867;50.836;4.364;2022-09-20T15:31:55;17.80;99.90
23691;DHT22;43867;50.836;4.364;2022-09-20T15:34:21;17.70;99.70
23691;DHT22;43867;50.836;4.364;2022-09-20T15:36:47;17.80;99.30
23691;DHT22;43867;50.836;4.364;2022-09-20T15:39:13;17.70;98.50
23691;DHT22;43867;50.836;4.364;2022-09-20T15:41:39;17.80;99.20
23691;DHT22;43867;50.836;4.364;2022-09-20T15:44:06;17.50;99.80
23691;DHT22;43867;50.836;4.364;2022-09-20T15:46:36;17.60;99.90
23691;DHT22;43867;50.836;4.364;2022-09-20T15:49:03;17.60;99.80
23691;DHT22;43867;50.836;4.364;2022-09-20T15:51:30;17.20;99.80
23691;DHT22;43867;50.836;4.364;2022-09-20T15:53:58;17.10;99.90
23691;DHT22;43867;50.836;4.364;2022-09-20T15:56:28;17.10;99.90
23691;DHT22;43867;50.836;4.364;2022-09-20T15:59:00;17.10;99.90
23691;DHT22;43867;50.836;4.364;2022-09-20T16:01:30;17.00;99.90
23691;DHT22;43867;50.836;4.364;2022-09-20T16:03:59;17.20;99.70
23691;DHT22;43867;50.836;4.364;2022-09-20T16:06:35;17.30;99.30
23691;DHT22;43867;50.836;4.364;2022-09-20T16:09:04;17.20;99.40
23691;DHT22;43867;50.836;4.364;2022-09-20T16:11:33;17.10;99.90
23691;DHT22;43867;50.836;4.364;2022-09-20T16:13:59;16.90;99.90
23691;DHT22;43867;50.836;4.364;2022-09-20T16:16:27;16.70;99.90
23691;DHT22;43867;50.836;4.364;2022-09-20T16:18:53;16.60;99.90
23691;DHT22;43867;50.836;4.364;2022-09-20T16:21:40;16.60;99.90
23691;DHT22;43867;50.836;4.364;2022-09-20T16:24:07;16.70;99.90
23691;DHT22;43867;50.836;4.364;2022-09-20T16:26:34;16.70;99.90
23691;DHT22;43867;50.836;4.364;2022-09-20T16:29:01;16.70;99.90
23691;DHT22;43867;50.836;4.364;2022-09-20T16:31:36;16.50;99.90
23691;DHT22;43867;50.836;4.364;2022-09-20T16:34:14;16.60;99.90
23691;DHT22;43867;50.836;4.364;2022-09-20T16:37:05;16.50;99.90
23691;DHT22;43867;50.836;4.364;2022-09-20T16:39:34;16.60;99.90
23691;DHT22;43867;50.836;4.364;2022-09-20T16:42:02;16.60;99.90
23691;DHT22;43867;50.836;4.364;2022-09-20T16:44:35;16.60;99.90
23691;DHT22;43867;50.836;4.364;2022-09-20T16:47:03;16.40;99.90
23691;DHT22;43867;50.836;4.364;2022-09-20T16:49:33;16.40;99.90
23691;DHT22;43867;50.836;4.364;2022-09-20T16:52:02;16.30;99.90
23691;DHT22;43867;50.836;4.364;2022-09-20T16:54:28;16.10;99.90
23691;DHT22;43867;50.836;4.364;2022-09-20T16:56:54;16.00;99.90
23691;DHT22;43867;50.836;4.364;2022-09-20T16:59:20;16.20;99.90
23691;DHT22;43867;50.836;4.364;2022-09-20T17:01:51;16.00;99.90
23691;DHT22;43867;50.836;4.364;2022-09-20T17:04:20;16.00;99.90
23691;DHT22;43867;50.836;4.364;2022-09-20T17:06:47;15.70;99.90
23691;DHT22;43867;50.836;4.364;2022-09-20T17:09:13;15.70;99.90
23691;DHT22;43867;50.836;4.364;2022-09-20T17:11:44;15.70;99.90
23691;DHT22;43867;50.836;4.364;2022-09-20T17:14:30;15.30;99.90
23691;DHT22;43867;50.836;4.364;2022-09-20T17:16:56;15.50;99.90
23691;DHT22;43867;50.836;4.364;2022-09-20T17:19:21;15.50;99.90
23691;DHT22;43867;50.836;4.364;2022-09-20T17:21:49;15.30;99.90
23691;DHT22;43867;50.836;4.364;2022-09-20T17:24:19;15.50;99.90
23691;DHT22;43867;50.836;4.364;2022-09-20T17:26:45;15.70;99.90
23691;DHT22;43867;50.836;4.364;2022-09-20T17:29:14;15.70;99.90
23691;DHT22;43867;50.836;4.364;2022-09-20T17:31:44;15.70;99.90
23691;DHT22;43867;50.836;4.364;2022-09-20T17:34:11;15.60;99.90
23691;DHT22;43867;50.836;4.364;2022-09-20T17:36:42;15.50;99.90
23691;DHT22;43867;50.836;4.364;2022-09-20T17:39:09;15.30;99.90
23691;DHT22;43867;50.836;4.364;2022-09-20T17:41:37;15.40;99.90
23691;DHT22;43867;50.836;4.364;2022-09-20T17:44:04;15.20;99.90
23691;DHT22;43867;50.836;4.364;2022-09-20T17:46:35;15.30;99.90
23691;DHT22;43867;50.836;4.364;2022-09-20T17:49:04;15.10;99.90
23691;DHT22;43867;50.836;4.364;2022-09-20T17:51:33;15.00;99.90
23691;DHT22;43867;50.836;4.364;2022-09-20T17:53:59;15.10;99.90
23691;DHT22;43867;50.836;4.364;2022-09-20T17:56:25;15.10;99.90
23691;DHT22;43867;50.836;4.364;2022-09-20T17:59:02;15.00;99.90
23691;DHT22;43867;50.836;4.364;2022-09-20T18:01:29;14.90;99.90
23691;DHT22;43867;50.836;4.364;2022-09-20T18:03:57;15.00;99.90
23691;DHT22;43867;50.836;4.364;2022-09-20T18:06:29;14.90;99.90
23691;DHT22;43867;50.836;4.364;2022-09-20T18:09:06;14.90;99.90
23691;DHT22;43867;50.836;4.364;2022-09-20T18:11:37;14.70;99.90
23691;DHT22;43867;50.836;4.364;2022-09-20T18:14:04;14.60;99.90
23691;DHT22;43867;50.836;4.364;2022-09-20T18:16:31;14.60;99.90
23691;DHT22;43867;50.836;4.364;2022-09-20T18:18:58;14.50;99.90
23691;DHT22;43867;50.836;4.364;2022-09-20T18:21:25;14.50;99.90
23691;DHT22;43867;50.836;4.364;2022-09-20T18:23:52;14.50;99.90
23691;DHT22;43867;50.836;4.364;2022-09-20T18:26:20;14.40;99.90
23691;DHT22;43867;50.836;4.364;2022-09-20T18:28:57;14.50;99.90
23691;DHT22;43867;50.836;4.364;2022-09-20T18:31:25;14.70;99.90
23691;DHT22;43867;50.836;4.364;2022-09-20T18:33:54;14.40;99.90
23691;DHT22;43867;50.836;4.364;2022-09-20T18:36:20;14.50;99.90
23691;DHT22;43867;50.836;4.364;2022-09-20T18:38:48;14.40;99.90
23691;DHT22;43867;50.836;4.364;2022-09-20T18:41:20;14.50;99.90
23691;DHT22;43867;50.836;4.364;2022-09-20T18:43:48;14.70;99.90
23691;DHT22;43867;50.836;4.364;2022-09-20T18:46:14;14.60;99.90
23691;DHT22;43867;50.836;4.364;2022-09-20T18:48:39;14.60;99.90
23691;DHT22;43867;50.836;4.364;2022-09-20T18:51:06;14.60;99.90
23691;DHT22;43867;50.836;4.364;2022-09-20T18:53:35;14.50;99.90
23691;DHT22;43867;50.836;4.364;2022-09-20T18:56:06;14.50;99.90
23691;DHT22;43867;50.836;4.364;2022-09-20T18:58:34;14.50;99.90
23691;DHT22;43867;50.836;4.364;2022-09-20T19:09:22;14.50;99.90
23691;DHT22;43867;50.836;4.364;2022-09-20T19:12:00;14.50;99.90
23691;DHT22;43867;50.836;4.364;2022-09-20T19:17:53;14.40;99.90
23691;DHT22;43867;50.836;4.364;2022-09-20T19:20:40;14.50;99.90
23691;DHT22;43867;50.836;4.364;2022-09-20T19:23:41;14.30;99.90
23691;DHT22;43867;50.836;4.364;2022-09-20T19:26:23;14.30;99.90
23691;DHT22;43867;50.836;4.364;2022-09-20T19:28:52;14.50;99.90
23691;DHT22;43867;50.836;4.364;2022-09-20T19:31:27;14.30;99.90
23691;DHT22;43867;50.836;4.364;2022-09-20T19:33:55;14.20;99.90
23691;DHT22;43867;50.836;4.364;2022-09-20T19:36:22;14.30;99.90
23691;DHT22;43867;50.836;4.364;2022-09-20T19:51:58;14.10;99.90
23691;DHT22;43867;50.836;4.364;2022-09-20T19:54:24;14.10;99.90
23691;DHT22;43867;50.836;4.364;2022-09-20T19:56:57;14.10;99.90
23691;DHT22;43867;50.836;4.364;2022-09-20T19:59:25;14.10;99.90
23691;DHT22;43867;50.836;4.364;2022-09-20T20:01:52;14.20;99.90
23691;DHT22;43867;50.836;4.364;2022-09-20T20:04:19;14.10;99.90
23691;DHT22;43867;50.836;4.364;2022-09-20T20:07:14;14.20;99.90
23691;DHT22;43867;50.836;4.364;2022-09-20T20:10:15;14.00;99.90
23691;DHT22;43867;50.836;4.364;2022-09-20T20:20:48;13.80;99.90
23691;DHT22;43867;50.836;4.364;2022-09-20T20:26:07;13.70;99.90
23691;DHT22;43867;50.836;4.364;2022-09-20T20:28:34;13.80;99.90
23691;DHT22;43867;50.836;4.364;2022-09-20T20:31:00;13.90;99.90
23691;DHT22;43867;50.836;4.364;2022-09-20T20:33:27;13.80;99.90
23691;DHT22;43867;50.836;4.364;2022-09-20T20:35:54;13.60;99.90
23691;DHT22;43867;50.836;4.364;2022-09-20T20:38:23;13.70;99.90
23691;DHT22;43867;50.836;4.364;2022-09-20T20:40:59;13.60;99.90
23691;DHT22;43867;50.836;4.364;2022-09-20T20:43:31;13.60;99.90
23691;DHT22;43867;50.836;4.364;2022-09-20T20:45:56;13.60;99.90
23691;DHT22;43867;50.836;4.364;2022-09-20T20:48:22;13.60;99.90
23691;DHT22;43867;50.836;4.364;2022-09-20T20:50:58;13.60;99.90
23691;DHT22;43867;50.836;4.364;2022-09-20T20:53:23;13.60;99.90
23691;DHT22;43867;50.836;4.364;2022-09-20T20:56:01;13.60;99.90
23691;DHT22;43867;50.836;4.364;2022-09-20T20:58:31;13.60;99.90
23691;DHT22;43867;50.836;4.364;2022-09-20T21:01:09;13.90;99.90
23691;DHT22;43867;50.836;4.364;2022-09-20T21:03:36;13.70;99.90
23691;DHT22;43867;50.836;4.364;2022-09-20T21:06:02;13.70;99.90
23691;DHT22;43867;50.836;4.364;2022-09-20T21:08:40;13.80;99.90
23691;DHT22;43867;50.836;4.364;2022-09-20T21:11:07;13.70;99.90
23691;DHT22;43867;50.836;4.364;2022-09-20T21:13:34;13.60;99.90
23691;DHT22;43867;50.836;4.364;2022-09-20T21:16:09;13.50;99.90
23691;DHT22;43867;50.836;4.364;2022-09-20T21:18:36;13.50;99.90
23691;DHT22;43867;50.836;4.364;2022-09-20T21:21:03;13.60;99.90
23691;DHT22;43867;50.836;4.364;2022-09-20T21:23:34;13.40;99.90
23691;DHT22;43867;50.836;4.364;2022-09-20T21:26:09;13.50;99.90
23691;DHT22;43867;50.836;4.364;2022-09-20T21:28:38;13.40;99.90
23691;DHT22;43867;50.836;4.364;2022-09-20T21:31:05;13.30;99.90
23691;DHT22;43867;50.836;4.364;2022-09-20T21:33:32;13.20;99.90
23691;DHT22;43867;50.836;4.364;2022-09-20T21:35:58;13.10;99.90
23691;DHT22;43867;50.836;4.364;2022-09-20T21:38:27;13.10;99.90
23691;DHT22;43867;50.836;4.364;2022-09-20T21:41:10;13.00;99.90
23691;DHT22;43867;50.836;4.364;2022-09-20T21:43:37;13.00;99.90
23691;DHT22;43867;50.836;4.364;2022-09-20T21:48:35;13.00;99.90
23691;DHT22;43867;50.836;4.364;2022-09-20T21:51:03;13.00;99.90
23691;DHT22;43867;50.836;4.364;2022-09-20T21:53:30;12.90;99.90
23691;DHT22;43867;50.836;4.364;2022-09-20T21:56:00;12.90;99.90
23691;DHT22;43867;50.836;4.364;2022-09-20T21:58:27;12.90;99.90
23691;DHT22;43867;50.836;4.364;2022-09-20T22:01:04;13.20;99.90
23691;DHT22;43867;50.836;4.364;2022-09-20T22:03:35;13.00;99.90
23691;DHT22;43867;50.836;4.364;2022-09-20T22:06:13;13.00;99.90
23691;DHT22;43867;50.836;4.364;2022-09-20T22:08:44;12.90;99.90
23691;DHT22;43867;50.836;4.364;2022-09-20T22:11:10;12.70;99.90